Pantagruel — V7CL4 — position and weather

sailwx.info

Track history (hours):
 
Tides and Currents Weather Stations Pressure Air Temp Water Temp Dewpoint Dewpoint Depression Visibility Wind Speed Wind Dir Waves Ship Positions

Pantagruel

Last reported at 2017-Sep-05 08:10 UTC. Time now 2017-Sep-22 02:54 UTC.
Position N 22°15' W 017°30'.
Warning: this ship's position is 16 days out of date.

Length 289 m; draft 10.8 m.

Type: Cargo ship. MMSI: 538005281.

Date/timePositionNaut miles runAvg speedWind from/ knotsBaromVisibWave heightAir tempDewpointWater temp
2017-Sep-05 08:10N 22°15' W 017°30'18811.4
2017-Sep-04 15:37N 24°58' W 015°47'311.4
2017-Sep-04 15:20N 25°00' W 015°45'411.4
2017-Sep-04 14:57N 25°04' W 015°42'811.5
2017-Sep-04 14:14N 25°11' W 015°38'511.7
2017-Sep-04 13:47N 25°16' W 015°35'512.0
2017-Sep-04 13:21N 25°20' W 015°31'712.0
2017-Sep-04 12:48N 25°25' W 015°27'411.9
2017-Sep-04 12:30N 25°28' W 015°25'611.8
2017-Sep-04 11:58N 25°33' W 015°21'611.6
2017-Sep-04 11:27N 25°38' W 015°17'511.4
2017-Sep-04 10:59N 25°43' W 015°14'611.9
2017-Sep-04 10:30N 25°48' W 015°10'2112.6
2017-Sep-04 08:51N 26°05' W 014°58'613.0
2017-Sep-04 08:24N 26°10' W 014°54'5511.8
2017-Sep-04 03:45N 26°56' W 014°20'3111.2
2017-Sep-04 01:00N 27°22' W 014°01'1711.6
2017-Sep-03 23:30N 27°36' W 013°50'611.9
2017-Sep-03 23:00N 27°41' W 013°47'611.6
2017-Sep-03 22:28N 27°46' W 013°43'511.7
2017-Sep-03 22:00N 27°51' W 013°39'611.5
2017-Sep-03 21:30N 27°56' W 013°36'611.4
2017-Sep-03 21:00N 28°01' W 013°32'611.4
2017-Sep-03 20:28N 28°06' W 013°29'511.3
2017-Sep-03 20:00N 28°10' W 013°26'1411.3
2017-Sep-03 18:48N 28°22' W 013°18'411.4
2017-Sep-03 18:28N 28°25' W 013°15'811.6
2017-Sep-03 17:45N 28°32' W 013°11'311.8
2017-Sep-03 17:30N 28°35' W 013°09'612.0
2017-Sep-03 16:59N 28°40' W 013°05'611.7
2017-Sep-03 16:27N 28°45' W 013°02'511.8
2017-Sep-03 16:01N 28°50' W 012°59'611.6
2017-Sep-03 15:31N 28°55' W 012°56'611.6
2017-Sep-03 15:01N 28°60' W 012°52'1111.3
2017-Sep-03 14:00N 29°10' W 012°45'611.2
2017-Sep-03 13:26N 29°15' W 012°42'2511.0
2017-Sep-03 11:08N 29°37' W 012°26'51311.1
2017-Sep-01 12:55N 35°58' W 005°38'410.2
2017-Sep-01 12:31N 35°58' W 005°33'611.2
2017-Sep-01 12:01N 36°00' W 005°26'510.9
2017-Sep-01 11:30N 36°01' W 005°20'510.8
2017-Sep-01 11:01N 36°03' W 005°13'40911.3
2017-Aug-30 22:55N 37°17' E 003°07'12611.3
2017-Aug-30 11:44N 37°27' E 005°46'311.8
2017-Aug-30 11:31N 37°27' E 005°49'2411.5
2017-Aug-30 09:24N 37°29' E 006°20'1711.4
2017-Aug-30 07:53N 37°31' E 006°41'511.6
2017-Aug-30 07:27N 37°31' E 006°48'711.7
2017-Aug-30 06:51N 37°32' E 006°57'411.7
2017-Aug-30 06:30N 37°32' E 007°02'611.5
2017-Aug-30 06:01N 37°32' E 007°09'2411.6
2017-Aug-30 03:58N 37°34' E 007°39'1011.8
2017-Aug-30 03:08N 37°35' E 007°51'111.9
2017-Aug-30 03:00N 37°35' E 007°53'811.9
2017-Aug-30 02:21N 37°36' E 008°03'3211.7
2017-Aug-29 23:36N 37°38' E 008°43'111.2
2017-Aug-29 23:30N 37°38' E 008°45'2511.3
2017-Aug-29 21:19N 37°39' E 009°16'1111.5
2017-Aug-29 20:22N 37°39' E 009°29'411.6
2017-Aug-29 20:00N 37°39' E 009°35'611.6
2017-Aug-29 19:30N 37°39' E 009°42'2111.7
2017-Aug-29 17:40N 37°39' E 010°09'211.8
2017-Aug-29 17:30N 37°39' E 010°12'611.8
2017-Aug-29 17:00N 37°38' E 010°19'612.1
2017-Aug-29 16:30N 37°37' E 010°27'611.7
2017-Aug-29 16:00N 37°36' E 010°34'611.6
2017-Aug-29 15:30N 37°34' E 010°41'611.6
2017-Aug-29 15:00N 37°33' E 010°48'611.6
2017-Aug-29 14:29N 37°31' E 010°55'611.4
2017-Aug-29 14:00N 37°30' E 011°02'611.3
2017-Aug-29 13:30N 37°29' E 011°09'611.3
2017-Aug-29 13:00N 37°27' E 011°16'611.2
2017-Aug-29 12:30N 37°25' E 011°22'611.2
2017-Aug-29 12:00N 37°22' E 011°28'811.4
2017-Aug-29 11:19N 37°18' E 011°37'411.7
2017-Aug-29 10:58N 37°16' E 011°42'711.9
2017-Aug-29 10:24N 37°14' E 011°49'511.7
2017-Aug-29 10:00N 37°12' E 011°55'611.3
2017-Aug-29 09:31N 37°09' E 012°01'511.0
2017-Aug-29 09:01N 37°07' E 012°07'511.0
2017-Aug-29 08:30N 37°04' E 012°13'611.1
2017-Aug-29 08:00N 37°01' E 012°19'611.2
2017-Aug-29 07:30N 36°59' E 012°25'611.3
2017-Aug-29 07:01N 36°56' E 012°32'611.3
2017-Aug-29 06:30N 36°54' E 012°38'611.6
2017-Aug-29 06:00N 36°51' E 012°44'611.7
2017-Aug-29 05:30N 36°48' E 012°50'611.6
2017-Aug-29 05:00N 36°45' E 012°57'611.6
2017-Aug-29 04:30N 36°42' E 013°03'611.7
2017-Aug-29 04:00N 36°39' E 013°09'611.7
2017-Aug-29 03:30N 36°37' E 013°16'611.7
2017-Aug-29 03:00N 36°34' E 013°23'611.7
2017-Aug-29 02:30N 36°31' E 013°28'611.7
2017-Aug-29 02:00N 36°28' E 013°35'611.6
2017-Aug-29 01:30N 36°25' E 013°41'611.4
2017-Aug-29 01:00N 36°23' E 013°47'611.3
2017-Aug-29 00:30N 36°20' E 013°54'611.2
2017-Aug-29 00:00N 36°17' E 013°60'611.2
2017-Aug-28 23:30N 36°15' E 014°06'611.2
2017-Aug-28 23:00N 36°12' E 014°12'611.3
2017-Aug-28 22:30N 36°09' E 014°18'611.4
2017-Aug-28 22:00N 36°06' E 014°24'611.4
2017-Aug-28 21:30N 36°04' E 014°30'611.0
2017-Aug-28 21:00N 36°01' E 014°36'611.3
2017-Aug-28 20:30N 35°58' E 014°42'510.6
2017-Aug-28 20:00N 35°54' E 014°47'2 3.2
2017-Aug-28 19:28N 35°52' E 014°47'0 0.0
2017-Aug-28 18:58N 35°52' E 014°47'0 0.0
2017-Aug-28 18:28N 35°52' E 014°47'0 0.0
2017-Aug-28 17:58N 35°52' E 014°47'0 0.0
2017-Aug-28 17:28N 35°52' E 014°47'0 0.0
2017-Aug-28 16:58N 35°52' E 014°47'0 0.0
2017-Aug-28 16:28N 35°52' E 014°47'0 0.0
2017-Aug-28 15:58N 35°52' E 014°47'0 0.1
2017-Aug-28 15:28N 35°52' E 014°47'0 0.1
2017-Aug-28 14:58N 35°53' E 014°47'0 0.0
2017-Aug-28 14:28N 35°53' E 014°47'0 0.0
2017-Aug-28 13:58N 35°53' E 014°47'0 0.1
2017-Aug-28 13:28N 35°53' E 014°47'0 0.0
2017-Aug-28 12:58N 35°53' E 014°47'0 0.1
2017-Aug-28 12:28N 35°53' E 014°47'0 0.0
2017-Aug-28 11:58N 35°53' E 014°47'0 0.0
2017-Aug-28 11:28N 35°53' E 014°47'0 0.0
2017-Aug-28 10:55N 35°53' E 014°47'0 0.0
2017-Aug-28 10:28N 35°53' E 014°47'0 0.1
2017-Aug-28 09:58N 35°53' E 014°47'0 0.0
2017-Aug-28 09:28N 35°53' E 014°47'0 0.0
2017-Aug-28 08:58N 35°53' E 014°47'0 0.0
2017-Aug-28 08:28N 35°53' E 014°47'0 0.0
2017-Aug-28 07:58N 35°53' E 014°47'0 0.0
2017-Aug-28 07:28N 35°53' E 014°47'0 0.0
2017-Aug-28 06:58N 35°53' E 014°47'0 0.0
2017-Aug-28 06:28N 35°53' E 014°47'0 0.1
2017-Aug-28 05:58N 35°53' E 014°47'0 0.0
2017-Aug-28 05:28N 35°53' E 014°47'0 0.1
2017-Aug-28 04:55N 35°52' E 014°47'0 0.0
2017-Aug-28 04:28N 35°52' E 014°47'0 0.1
2017-Aug-28 03:58N 35°53' E 014°47'0 0.0
2017-Aug-28 03:28N 35°53' E 014°47'0 0.0
2017-Aug-28 02:58N 35°52' E 014°47'0 0.1
2017-Aug-28 02:28N 35°53' E 014°47'0 0.0
2017-Aug-28 01:58N 35°53' E 014°47'0 0.0
2017-Aug-28 01:28N 35°53' E 014°47'0 0.1
2017-Aug-28 00:58N 35°53' E 014°47'0 0.0
2017-Aug-28 00:28N 35°53' E 014°47'0 0.0
2017-Aug-27 23:58N 35°53' E 014°47'0 0.0
2017-Aug-27 23:31N 35°53' E 014°47'0 0.0
2017-Aug-27 23:01N 35°53' E 014°47'0 0.0
2017-Aug-27 22:27N 35°53' E 014°47'0 0.0
2017-Aug-27 22:00N 35°53' E 014°47'0 0.1
2017-Aug-27 21:30N 35°53' E 014°47'0 0.0
2017-Aug-27 21:00N 35°53' E 014°47'0 0.0
2017-Aug-27 20:30N 35°53' E 014°47'0 0.0
2017-Aug-27 20:00N 35°53' E 014°47'0 0.0
2017-Aug-27 19:30N 35°53' E 014°47'0 0.2
2017-Aug-27 19:00N 35°53' E 014°47'1 1.7
2017-Aug-27 18:31N 35°54' E 014°47'4 8.2
2017-Aug-27 18:00N 35°58' E 014°46'4 7.9
2017-Aug-27 17:30N 36°01' E 014°44'4 8.6
2017-Aug-27 17:00N 36°05' E 014°47'510.4
2017-Aug-27 16:30N 36°08' E 014°52'510.4
2017-Aug-27 16:00N 36°11' E 014°57'510.7
2017-Aug-27 15:30N 36°14' E 015°02'510.6
2017-Aug-27 15:00N 36°18' E 015°07'510.6
2017-Aug-27 14:31N 36°21' E 015°12'510.5
2017-Aug-27 14:00N 36°25' E 015°17'510.5
2017-Aug-27 13:30N 36°29' E 015°21'510.3
2017-Aug-27 13:00N 36°34' E 015°24'510.1
2017-Aug-27 12:30N 36°37' E 015°28'510.0
2017-Aug-27 12:00N 36°41' E 015°32'510.0
2017-Aug-27 11:30N 36°46' E 015°35'510.0
2017-Aug-27 11:00N 36°50' E 015°39'510.0
2017-Aug-27 10:30N 36°54' E 015°42'5 9.9
2017-Aug-27 10:00N 36°58' E 015°46'5 9.8
2017-Aug-27 09:30N 37°02' E 015°49'5 9.8
2017-Aug-27 09:01N 37°06' E 015°52'510.0
2017-Aug-27 08:30N 37°10' E 015°56'5 9.9
2017-Aug-27 07:59N 37°15' E 015°59'5 9.8
2017-Aug-27 07:30N 37°19' E 016°02'510.1
2017-Aug-27 07:01N 37°23' E 016°06'510.4
2017-Aug-27 06:30N 37°28' E 016°09'510.5
2017-Aug-27 06:01N 37°32' E 016°13'710.5
2017-Aug-27 05:23N 37°37' E 016°18'610.1
2017-Aug-27 04:45N 37°42' E 016°22'310.3
2017-Aug-27 04:30N 37°45' E 016°24'5610.9
2017-Aug-26 23:21N 38°32' E 017°02'1711.0
2017-Aug-26 21:46N 38°47' E 017°14'310.6
2017-Aug-26 21:28N 38°49' E 017°17'811.0
2017-Aug-26 20:47N 38°56' E 017°22'311.0
2017-Aug-26 20:30N 38°59' E 017°24'1510.3
2017-Aug-26 19:00N 39°14' E 017°25'510.4
2017-Aug-26 18:30N 39°19' E 017°25'610.6
2017-Aug-26 17:57N 39°25' E 017°25'510.6
2017-Aug-26 17:30N 39°30' E 017°25'510.5
2017-Aug-26 17:00N 39°35' E 017°23'510.5
2017-Aug-26 16:31N 39°40' E 017°21'510.4
2017-Aug-26 16:00N 39°45' E 017°20'510.3
2017-Aug-26 15:30N 39°50' E 017°18'510.1
2017-Aug-26 15:01N 39°55' E 017°17'10 9.8
2017-Aug-26 14:00N 40°04' E 017°14'5 9.8
2017-Aug-26 13:31N 40°09' E 017°12'510.0
2017-Aug-26 13:00N 40°14' E 017°11'510.1
2017-Aug-26 12:31N 40°19' E 017°09'510.1
2017-Aug-26 12:01N 40°24' E 017°08'4 7.9
2017-Aug-26 11:31N 40°26' E 017°12'2 4.3
2017-Aug-26 11:00N 40°29' E 017°12'0 0.1
2017-Aug-26 10:29N 40°29' E 017°12'0 0.0
2017-Aug-26 09:59N 40°29' E 017°12'0 0.0
2017-Aug-26 09:29N 40°29' E 017°12'0 0.0
2017-Aug-26 08:59N 40°29' E 017°12'0 0.0
2017-Aug-26 08:29N 40°29' E 017°12'  
Track history (hours):
 
Tides and Currents Weather Stations Pressure Air Temp Water Temp Dewpoint Dewpoint Depression Visibility Wind Speed Wind Dir Waves Ship Positions

Pantagruel

Last reported at 2017-Sep-05 08:10 UTC. Time now 2017-Sep-22 02:54 UTC.
Position N 22°15' W 017°30'.
Warning: this ship's position is 16 days out of date.

Length 289 m; draft 10.8 m.

Type: Cargo ship. MMSI: 538005281.

Date/timePositionNaut miles runAvg speedWind from/ knotsBaromVisibWave heightAir tempDewpointWater temp
2017-Sep-05 08:10N 22°15' W 017°30'18811.4
2017-Sep-04 15:37N 24°58' W 015°47'311.4
2017-Sep-04 15:20N 25°00' W 015°45'411.4
2017-Sep-04 14:57N 25°04' W 015°42'811.5
2017-Sep-04 14:14N 25°11' W 015°38'511.7
2017-Sep-04 13:47N 25°16' W 015°35'512.0
2017-Sep-04 13:21N 25°20' W 015°31'712.0
2017-Sep-04 12:48N 25°25' W 015°27'411.9
2017-Sep-04 12:30N 25°28' W 015°25'611.8
2017-Sep-04 11:58N 25°33' W 015°21'611.6
2017-Sep-04 11:27N 25°38' W 015°17'511.4
2017-Sep-04 10:59N 25°43' W 015°14'611.9
2017-Sep-04 10:30N 25°48' W 015°10'2112.6
2017-Sep-04 08:51N 26°05' W 014°58'613.0
2017-Sep-04 08:24N 26°10' W 014°54'5511.8
2017-Sep-04 03:45N 26°56' W 014°20'3111.2
2017-Sep-04 01:00N 27°22' W 014°01'1711.6
2017-Sep-03 23:30N 27°36' W 013°50'611.9
2017-Sep-03 23:00N 27°41' W 013°47'611.6
2017-Sep-03 22:28N 27°46' W 013°43'511.7
2017-Sep-03 22:00N 27°51' W 013°39'611.5
2017-Sep-03 21:30N 27°56' W 013°36'611.4
2017-Sep-03 21:00N 28°01' W 013°32'611.4
2017-Sep-03 20:28N 28°06' W 013°29'511.3
2017-Sep-03 20:00N 28°10' W 013°26'1411.3
2017-Sep-03 18:48N 28°22' W 013°18'411.4
2017-Sep-03 18:28N 28°25' W 013°15'811.6
2017-Sep-03 17:45N 28°32' W 013°11'311.8
2017-Sep-03 17:30N 28°35' W 013°09'612.0
2017-Sep-03 16:59N 28°40' W 013°05'611.7
2017-Sep-03 16:27N 28°45' W 013°02'511.8
2017-Sep-03 16:01N 28°50' W 012°59'611.6
2017-Sep-03 15:31N 28°55' W 012°56'611.6
2017-Sep-03 15:01N 28°60' W 012°52'1111.3
2017-Sep-03 14:00N 29°10' W 012°45'611.2
2017-Sep-03 13:26N 29°15' W 012°42'2511.0
2017-Sep-03 11:08N 29°37' W 012°26'51311.1
2017-Sep-01 12:55N 35°58' W 005°38'410.2
2017-Sep-01 12:31N 35°58' W 005°33'611.2
2017-Sep-01 12:01N 36°00' W 005°26'510.9
2017-Sep-01 11:30N 36°01' W 005°20'510.8
2017-Sep-01 11:01N 36°03' W 005°13'40911.3
2017-Aug-30 22:55N 37°17' E 003°07'12611.3
2017-Aug-30 11:44N 37°27' E 005°46'311.8
2017-Aug-30 11:31N 37°27' E 005°49'2411.5
2017-Aug-30 09:24N 37°29' E 006°20'1711.4
2017-Aug-30 07:53N 37°31' E 006°41'511.6
2017-Aug-30 07:27N 37°31' E 006°48'711.7
2017-Aug-30 06:51N 37°32' E 006°57'411.7
2017-Aug-30 06:30N 37°32' E 007°02'611.5
2017-Aug-30 06:01N 37°32' E 007°09'2411.6
2017-Aug-30 03:58N 37°34' E 007°39'1011.8
2017-Aug-30 03:08N 37°35' E 007°51'111.9
2017-Aug-30 03:00N 37°35' E 007°53'811.9
2017-Aug-30 02:21N 37°36' E 008°03'3211.7
2017-Aug-29 23:36N 37°38' E 008°43'111.2
2017-Aug-29 23:30N 37°38' E 008°45'2511.3
2017-Aug-29 21:19N 37°39' E 009°16'1111.5
2017-Aug-29 20:22N 37°39' E 009°29'411.6
2017-Aug-29 20:00N 37°39' E 009°35'611.6
2017-Aug-29 19:30N 37°39' E 009°42'2111.7
2017-Aug-29 17:40N 37°39' E 010°09'211.8
2017-Aug-29 17:30N 37°39' E 010°12'611.8
2017-Aug-29 17:00N 37°38' E 010°19'612.1
2017-Aug-29 16:30N 37°37' E 010°27'611.7
2017-Aug-29 16:00N 37°36' E 010°34'611.6
2017-Aug-29 15:30N 37°34' E 010°41'611.6
2017-Aug-29 15:00N 37°33' E 010°48'611.6
2017-Aug-29 14:29N 37°31' E 010°55'611.4
2017-Aug-29 14:00N 37°30' E 011°02'611.3
2017-Aug-29 13:30N 37°29' E 011°09'611.3
2017-Aug-29 13:00N 37°27' E 011°16'611.2
2017-Aug-29 12:30N 37°25' E 011°22'611.2
2017-Aug-29 12:00N 37°22' E 011°28'811.4
2017-Aug-29 11:19N 37°18' E 011°37'411.7
2017-Aug-29 10:58N 37°16' E 011°42'711.9
2017-Aug-29 10:24N 37°14' E 011°49'511.7
2017-Aug-29 10:00N 37°12' E 011°55'611.3
2017-Aug-29 09:31N 37°09' E 012°01'511.0
2017-Aug-29 09:01N 37°07' E 012°07'511.0
2017-Aug-29 08:30N 37°04' E 012°13'611.1
2017-Aug-29 08:00N 37°01' E 012°19'611.2
2017-Aug-29 07:30N 36°59' E 012°25'611.3
2017-Aug-29 07:01N 36°56' E 012°32'611.3
2017-Aug-29 06:30N 36°54' E 012°38'611.6
2017-Aug-29 06:00N 36°51' E 012°44'611.7
2017-Aug-29 05:30N 36°48' E 012°50'611.6
2017-Aug-29 05:00N 36°45' E 012°57'611.6
2017-Aug-29 04:30N 36°42' E 013°03'611.7
2017-Aug-29 04:00N 36°39' E 013°09'611.7
2017-Aug-29 03:30N 36°37' E 013°16'611.7
2017-Aug-29 03:00N 36°34' E 013°23'611.7
2017-Aug-29 02:30N 36°31' E 013°28'611.7
2017-Aug-29 02:00N 36°28' E 013°35'611.6
2017-Aug-29 01:30N 36°25' E 013°41'611.4
2017-Aug-29 01:00N 36°23' E 013°47'611.3
2017-Aug-29 00:30N 36°20' E 013°54'611.2
2017-Aug-29 00:00N 36°17' E 013°60'611.2
2017-Aug-28 23:30N 36°15' E 014°06'611.2
2017-Aug-28 23:00N 36°12' E 014°12'611.3
2017-Aug-28 22:30N 36°09' E 014°18'611.4
2017-Aug-28 22:00N 36°06' E 014°24'611.4
2017-Aug-28 21:30N 36°04' E 014°30'611.0
2017-Aug-28 21:00N 36°01' E 014°36'611.3
2017-Aug-28 20:30N 35°58' E 014°42'510.6
2017-Aug-28 20:00N 35°54' E 014°47'2 3.2
2017-Aug-28 19:28N 35°52' E 014°47'0 0.0
2017-Aug-28 18:58N 35°52' E 014°47'0 0.0
2017-Aug-28 18:28N 35°52' E 014°47'0 0.0
2017-Aug-28 17:58N 35°52' E 014°47'0 0.0
2017-Aug-28 17:28N 35°52' E 014°47'0 0.0
2017-Aug-28 16:58N 35°52' E 014°47'0 0.0
2017-Aug-28 16:28N 35°52' E 014°47'0 0.0
2017-Aug-28 15:58N 35°52' E 014°47'0 0.1
2017-Aug-28 15:28N 35°52' E 014°47'0 0.1
2017-Aug-28 14:58N 35°53' E 014°47'0 0.0
2017-Aug-28 14:28N 35°53' E 014°47'0 0.0
2017-Aug-28 13:58N 35°53' E 014°47'0 0.1
2017-Aug-28 13:28N 35°53' E 014°47'0 0.0
2017-Aug-28 12:58N 35°53' E 014°47'0 0.1
2017-Aug-28 12:28N 35°53' E 014°47'0 0.0
2017-Aug-28 11:58N 35°53' E 014°47'0 0.0
2017-Aug-28 11:28N 35°53' E 014°47'0 0.0
2017-Aug-28 10:55N 35°53' E 014°47'0 0.0
2017-Aug-28 10:28N 35°53' E 014°47'0 0.1
2017-Aug-28 09:58N 35°53' E 014°47'0 0.0
2017-Aug-28 09:28N 35°53' E 014°47'0 0.0
2017-Aug-28 08:58N 35°53' E 014°47'0 0.0
2017-Aug-28 08:28N 35°53' E 014°47'0 0.0
2017-Aug-28 07:58N 35°53' E 014°47'0 0.0
2017-Aug-28 07:28N 35°53' E 014°47'0 0.0
2017-Aug-28 06:58N 35°53' E 014°47'0 0.0
2017-Aug-28 06:28N 35°53' E 014°47'0 0.1
2017-Aug-28 05:58N 35°53' E 014°47'0 0.0
2017-Aug-28 05:28N 35°53' E 014°47'0 0.1
2017-Aug-28 04:55N 35°52' E 014°47'0 0.0
2017-Aug-28 04:28N 35°52' E 014°47'0 0.1
2017-Aug-28 03:58N 35°53' E 014°47'0 0.0
2017-Aug-28 03:28N 35°53' E 014°47'0 0.0
2017-Aug-28 02:58N 35°52' E 014°47'0 0.1
2017-Aug-28 02:28N 35°53' E 014°47'0 0.0
2017-Aug-28 01:58N 35°53' E 014°47'0 0.0
2017-Aug-28 01:28N 35°53' E 014°47'0 0.1
2017-Aug-28 00:58N 35°53' E 014°47'0 0.0
2017-Aug-28 00:28N 35°53' E 014°47'0 0.0
2017-Aug-27 23:58N 35°53' E 014°47'0 0.0
2017-Aug-27 23:31N 35°53' E 014°47'0 0.0
2017-Aug-27 23:01N 35°53' E 014°47'0 0.0
2017-Aug-27 22:27N 35°53' E 014°47'0 0.0
2017-Aug-27 22:00N 35°53' E 014°47'0 0.1
2017-Aug-27 21:30N 35°53' E 014°47'0 0.0
2017-Aug-27 21:00N 35°53' E 014°47'0 0.0
2017-Aug-27 20:30N 35°53' E 014°47'0 0.0
2017-Aug-27 20:00N 35°53' E 014°47'0 0.0
2017-Aug-27 19:30N 35°53' E 014°47'0 0.2
2017-Aug-27 19:00N 35°53' E 014°47'1 1.7
2017-Aug-27 18:31N 35°54' E 014°47'4 8.2
2017-Aug-27 18:00N 35°58' E 014°46'4 7.9
2017-Aug-27 17:30N 36°01' E 014°44'4 8.6
2017-Aug-27 17:00N 36°05' E 014°47'510.4
2017-Aug-27 16:30N 36°08' E 014°52'510.4
2017-Aug-27 16:00N 36°11' E 014°57'510.7
2017-Aug-27 15:30N 36°14' E 015°02'510.6
2017-Aug-27 15:00N 36°18' E 015°07'510.6
2017-Aug-27 14:31N 36°21' E 015°12'510.5
2017-Aug-27 14:00N 36°25' E 015°17'510.5
2017-Aug-27 13:30N 36°29' E 015°21'510.3
2017-Aug-27 13:00N 36°34' E 015°24'510.1
2017-Aug-27 12:30N 36°37' E 015°28'510.0
2017-Aug-27 12:00N 36°41' E 015°32'510.0
2017-Aug-27 11:30N 36°46' E 015°35'510.0
2017-Aug-27 11:00N 36°50' E 015°39'510.0
2017-Aug-27 10:30N 36°54' E 015°42'5 9.9
2017-Aug-27 10:00N 36°58' E 015°46'5 9.8
2017-Aug-27 09:30N 37°02' E 015°49'5 9.8
2017-Aug-27 09:01N 37°06' E 015°52'510.0
2017-Aug-27 08:30N 37°10' E 015°56'5 9.9
2017-Aug-27 07:59N 37°15' E 015°59'5 9.8
2017-Aug-27 07:30N 37°19' E 016°02'510.1
2017-Aug-27 07:01N 37°23' E 016°06'510.4
2017-Aug-27 06:30N 37°28' E 016°09'510.5
2017-Aug-27 06:01N 37°32' E 016°13'710.5
2017-Aug-27 05:23N 37°37' E 016°18'610.1
2017-Aug-27 04:45N 37°42' E 016°22'310.3
2017-Aug-27 04:30N 37°45' E 016°24'5610.9
2017-Aug-26 23:21N 38°32' E 017°02'1711.0
2017-Aug-26 21:46N 38°47' E 017°14'310.6
2017-Aug-26 21:28N 38°49' E 017°17'811.0
2017-Aug-26 20:47N 38°56' E 017°22'311.0
2017-Aug-26 20:30N 38°59' E 017°24'1510.3
2017-Aug-26 19:00N 39°14' E 017°25'510.4
2017-Aug-26 18:30N 39°19' E 017°25'610.6
2017-Aug-26 17:57N 39°25' E 017°25'510.6
2017-Aug-26 17:30N 39°30' E 017°25'510.5
2017-Aug-26 17:00N 39°35' E 017°23'510.5
2017-Aug-26 16:31N 39°40' E 017°21'510.4
2017-Aug-26 16:00N 39°45' E 017°20'510.3
2017-Aug-26 15:30N 39°50' E 017°18'510.1
2017-Aug-26 15:01N 39°55' E 017°17'10 9.8
2017-Aug-26 14:00N 40°04' E 017°14'5 9.8
2017-Aug-26 13:31N 40°09' E 017°12'510.0
2017-Aug-26 13:00N 40°14' E 017°11'510.1
2017-Aug-26 12:31N 40°19' E 017°09'510.1
2017-Aug-26 12:01N 40°24' E 017°08'4 7.9
2017-Aug-26 11:31N 40°26' E 017°12'2 4.3
2017-Aug-26 11:00N 40°29' E 017°12'0 0.1
2017-Aug-26 10:29N 40°29' E 017°12'0 0.0
2017-Aug-26 09:59N 40°29' E 017°12'0 0.0
2017-Aug-26 09:29N 40°29' E 017°12'0 0.0
2017-Aug-26 08:59N 40°29' E 017°12'0 0.0
2017-Aug-26 08:29N 40°29' E 017°12'  

Dump ship's entire track history